Time;durP1;ratioP1;P1;durP2;ratioP2;P2;SDS_P1;SDS_P2;PMS_P1;PMS_P2;Temp;Humidity;BMP_temperature;BMP_pressure;BME280_temperature;BME280_humidity;BME280_pressure;Samples;Min_cycle;Max_cycle;Signal;HPM_P1;HPM_P2
2023/02/18 00:01:38;;;;;;;2.42;2.20;;;11.90;83.10;;;14.21;53.58;98488.38;5031031;28;20046;-43
2023/02/18 00:04:06;;;;;;;2.88;1.73;;;11.90;83.00;;;14.19;53.79;98479.69;5030839;28;20046;-44
2023/02/18 00:06:35;;;;;;;2.00;1.30;;;11.90;82.80;;;14.14;53.94;98480.16;5030261;28;20671;-43
2023/02/18 00:09:05;;;;;;;1.48;1.25;;;11.90;83.10;;;14.37;53.24;98479.53;5030070;28;20051;-43
2023/02/18 00:11:35;;;;;;;2.42;1.23;;;11.90;83.10;;;14.48;52.97;98478.38;5031047;28;20063;-44
2023/02/18 00:14:06;;;;;;;2.33;1.48;;;11.90;82.70;;;14.43;53.04;98489.59;5030683;28;20501;-45
2023/02/18 00:16:34;;;;;;;2.50;1.60;;;11.90;83.50;;;14.37;53.10;98476.88;5030782;28;20041;-48
2023/02/18 00:19:04;;;;;;;1.33;1.23;;;11.90;82.70;;;14.45;52.89;98484.06;5031025;28;20045;-43
2023/02/18 00:21:34;;;;;;;1.40;1.30;;;11.90;82.40;;;14.44;52.79;98472.50;5030889;28;20044;-44
2023/02/18 00:24:07;;;;;;;2.30;1.35;;;11.90;83.20;;;14.43;52.83;98478.06;5030591;28;20044;-43
2023/02/18 00:26:35;;;;;;;3.50;1.70;;;11.90;82.10;;;14.44;52.73;98477.03;5030762;28;20049;-45
2023/02/18 00:29:03;;;;;;;2.20;1.60;;;11.90;82.10;;;14.36;52.73;98473.34;5030955;28;20057;-47
2023/02/18 00:31:35;;;;;;;2.60;1.30;;;11.90;81.60;;;14.37;53.01;98475.03;5029475;28;20054;-45
2023/02/18 00:34:04;;;;;;;2.85;1.33;;;11.90;82.10;;;14.33;53.04;98470.16;5030574;28;20045;-47
2023/02/18 00:36:34;;;;;;;2.47;1.55;;;12.00;81.70;;;14.47;52.59;98469.50;5029363;28;20049;-44
2023/02/18 00:39:08;;;;;;;2.13;1.83;;;12.00;81.40;;;14.45;52.81;98462.66;5031224;28;20041;-45
2023/02/18 00:41:36;;;;;;;2.17;1.35;;;12.00;81.60;;;14.54;52.45;98467.84;5030734;28;20057;-46
2023/02/18 00:44:05;;;;;;;2.40;1.70;;;12.00;81.50;;;14.52;52.47;98464.50;5029015;28;20504;-43
2023/02/18 00:46:34;;;;;;;1.85;1.60;;;12.00;81.30;;;14.62;52.28;98461.69;5030506;28;20045;-44
2023/02/18 00:49:03;;;;;;;1.85;1.52;;;12.10;81.00;;;14.68;52.12;98463.69;5028925;28;20053;-47
2023/02/18 00:51:31;;;;;;;2.20;1.40;;;12.10;81.10;;;14.70;51.92;98477.75;5013426;28;20064;-45
2023/02/18 00:53:59;;;;;;;2.55;1.70;;;12.10;80.80;;;14.63;52.31;98455.31;5032992;28;20037;-43
2023/02/18 00:56:27;;;;;;;2.50;1.80;;;12.10;80.80;;;14.72;51.88;98456.16;5034602;28;20041;-44
2023/02/18 00:58:54;;;;;;;5.43;1.70;;;12.10;80.90;;;14.56;52.30;98463.19;5033181;28;20048;-44
2023/02/18 01:01:23;;;;;;;2.08;1.45;;;12.10;80.70;;;14.67;51.92;98459.31;5033078;28;20045;-45
2023/02/18 01:03:50;;;;;;;3.05;1.85;;;12.10;80.30;;;14.68;51.83;98461.00;5034193;28;20467;-44
2023/02/18 01:06:18;;;;;;;3.17;1.70;;;12.10;80.40;;;14.61;52.03;98462.69;5032691;28;20528;-46
2023/02/18 01:08:48;;;;;;;1.92;1.70;;;12.10;80.10;;;14.34;52.74;98461.94;5025323;28;20060;-46
2023/02/18 01:11:16;;;;;;;4.00;2.03;;;12.10;80.30;;;14.33;52.75;98465.63;5033572;28;20056;-46
2023/02/18 01:13:45;;;;;;;4.38;1.70;;;12.00;80.00;;;14.36;52.72;98459.97;5016349;28;20042;-45
2023/02/18 01:16:13;;;;;;;2.53;2.20;;;12.00;80.30;;;14.21;52.83;98463.44;5034082;28;20065;-45
2023/02/18 01:18:40;;;;;;;2.30;1.83;;;12.00;80.20;;;14.31;52.66;98459.63;5032889;28;20493;-47
2023/02/18 01:21:09;;;;;;;3.53;2.25;;;12.00;80.10;;;14.37;52.49;98458.13;5032442;28;20056;-48
2023/02/18 01:23:39;;;;;;;4.30;2.38;;;12.00;79.80;;;14.43;51.92;98446.72;5032091;28;20056;-45
2023/02/18 01:26:08;;;;;;;2.58;2.03;;;12.00;80.00;;;14.41;52.15;98458.63;5016625;28;20041;-47
2023/02/18 01:28:39;;;;;;;3.15;2.28;;;12.00;79.50;;;14.24;52.55;98466.63;5032415;28;20049;-48
2023/02/18 01:31:11;;;;;;;4.32;1.98;;;12.00;79.30;;;14.50;51.74;98457.59;5032554;28;20434;-46
2023/02/18 01:33:40;;;;;;;4.10;1.80;;;12.10;79.50;;;14.60;51.63;98460.16;5032362;28;20072;-49
2023/02/18 01:36:09;;;;;;;2.58;1.73;;;12.10;79.20;;;14.64;51.38;98461.53;5032336;28;20037;-49
2023/02/18 01:38:37;;;;;;;2.17;1.83;;;12.00;79.30;;;14.61;51.40;98451.97;5032369;28;20448;-43
2023/02/18 01:41:05;;;;;;;2.53;1.95;;;12.00;79.30;;;14.62;51.45;98447.44;5032467;28;20041;-48
2023/02/18 01:43:33;;;;;;;3.10;1.88;;;12.00;79.10;;;14.52;51.67;98456.47;5031506;28;20053;-44
2023/02/18 01:46:20;;;;;;;2.45;1.90;;;12.00;79.30;;;14.54;51.59;98445.59;5033686;28;20409;-44
2023/02/18 01:48:56;;;;;;;2.63;1.70;;;12.00;79.40;;;14.71;51.21;98447.28;5032301;28;20041;-43
2023/02/18 01:51:33;;;;;;;1.60;1.50;;;12.00;79.30;;;14.76;50.89;98446.78;5032400;28;20065;-46
2023/02/18 01:54:17;;;;;;;2.20;1.73;;;12.10;78.60;;;14.72;51.29;98445.44;5032382;28;20060;-47
2023/02/18 01:57:00;;;;;;;2.95;1.65;;;12.10;78.80;;;14.49;51.74;98445.22;5031558;28;20049;-45
2023/02/18 01:59:38;;;;;;;2.65;1.88;;;12.00;79.30;;;14.37;51.71;98445.56;5031769;28;20405;-47
2023/02/18 02:02:11;;;;;;;3.05;1.77;;;12.00;78.80;;;14.37;52.05;98453.59;5023917;28;20440;-45
2023/02/18 02:04:40;;;;;;;3.47;2.30;;;12.00;79.10;;;14.33;52.14;98435.34;5030335;28;20053;-47
2023/02/18 02:07:09;;;;;;;2.13;1.80;;;12.00;78.90;;;14.45;51.79;98449.25;5031172;28;20064;-46
2023/02/18 02:09:39;;;;;;;2.55;2.10;;;12.00;78.80;;;14.45;51.88;98443.91;5031679;28;20508;-46
2023/02/18 02:12:32;;;;;;;2.63;2.08;;;12.00;78.90;;;14.48;51.69;98451.56;5015174;28;20037;-46
2023/02/18 02:15:08;;;;;;;2.75;2.08;;;12.10;79.20;;;14.41;51.95;98448.75;5025106;28;20041;-46
2023/02/18 02:18:08;;;;;;;1.58;1.42;;;12.00;79.20;;;14.49;51.91;98440.72;5033153;28;20397;-47
2023/02/18 02:21:10;;;;;;;2.58;1.95;;;12.00;79.30;;;14.33;52.13;98438.84;5032144;28;20052;-44
2023/02/18 02:24:00;;;;;;;3.00;2.00;;;12.00;79.00;;;14.35;52.17;98446.72;5031821;28;20059;-43
2023/02/18 02:27:00;;;;;;;2.55;2.35;;;12.00;79.40;;;14.27;52.50;98447.56;5031273;28;20533;-45
2023/02/18 02:29:50;;;;;;;2.83;2.20;;;12.00;79.30;;;14.48;51.90;98446.22;5032053;28;20064;-44
2023/02/18 02:32:34;;;;;;;2.45;2.10;;;12.10;79.30;;;14.34;52.28;98437.00;5031609;28;20049;-47
2023/02/18 02:35:23;;;;;;;2.92;2.10;;;12.00;79.70;;;14.56;51.94;98441.75;5032373;28;20048;-45
2023/02/18 02:38:13;;;;;;;3.60;1.75;;;12.00;79.50;;;14.43;51.90;98430.66;5024169;28;20045;-44
2023/02/18 02:40:55;;;;;;;3.10;2.25;;;12.00;79.50;;;14.60;51.44;98438.72;5032492;28;20041;-43
2023/02/18 02:44:09;;;;;;;2.85;2.33;;;12.10;78.80;;;14.37;51.74;98423.28;5031618;28;20049;-46
2023/02/18 02:46:44;;;;;;;3.30;2.40;;;12.00;78.20;;;14.61;51.07;98427.84;5029025;28;20528;-47
2023/02/18 02:49:36;;;;;;;3.53;2.55;;;12.10;78.10;;;14.36;51.42;98429.63;5014911;28;20045;-45
2023/02/18 02:52:32;;;;;;;3.17;2.45;;;12.10;77.10;;;14.26;51.72;98427.13;5012515;28;20042;-48
2023/02/18 02:55:02;;;;;;;3.83;2.10;;;12.10;77.20;;;14.32;51.35;98422.94;5025492;28;20044;-45
2023/02/18 02:57:29;;;;;;;2.42;1.88;;;12.00;76.90;;;14.36;51.30;98429.63;5014494;28;20060;-48
2023/02/18 03:00:09;;;;;;;2.33;1.92;;;12.00;76.80;;;14.42;51.25;98428.13;5031100;28;20052;-43
2023/02/18 03:03:11;;;;;;;2.25;1.80;;;12.00;77.10;;;14.33;51.02;98421.97;5030623;28;20513;-44
2023/02/18 03:06:26;;;;;;;1.95;1.75;;;12.10;76.60;;;14.23;51.67;98432.81;5032015;28;20045;-46
2023/02/18 03:09:08;;;;;;;4.03;2.35;;;12.00;76.80;;;14.19;51.61;98418.09;5008759;28;20052;-45
2023/02/18 03:11:51;;;;;;;2.88;2.33;;;12.00;76.80;;;14.31;51.68;98403.38;5029913;28;20534;-43
2023/02/18 03:14:35;;;;;;;2.67;2.20;;;12.10;76.90;;;14.48;50.97;98403.34;5014961;28;20509;-43
2023/02/18 03:17:14;;;;;;;3.95;2.10;;;12.10;76.70;;;14.66;50.57;98404.06;5024141;28;20049;-45
2023/02/18 03:19:51;;;;;;;2.92;2.00;;;12.10;76.40;;;14.66;50.15;98400.56;5030264;28;20428;-45
2023/02/18 03:22:36;;;;;;;3.67;1.98;;;12.10;76.20;;;14.67;50.33;98396.84;5014373;28;20049;-45
2023/02/18 03:25:06;;;;;;;2.67;2.17;;;12.10;76.30;;;14.53;50.66;98392.97;5007968;28;20068;-50
2023/02/18 03:27:52;;;;;;;2.15;1.52;;;12.10;76.80;;;14.62;50.69;98396.50;5031465;28;20054;-47
2023/02/18 03:30:35;;;;;;;2.88;1.63;;;12.10;76.60;;;14.72;50.44;98405.25;5014345;28;20072;-46
2023/02/18 03:33:08;;;;;;;3.33;2.08;;;12.10;76.90;;;14.69;50.59;98410.91;5023864;28;20042;-46
2023/02/18 03:35:38;;;;;;;2.47;1.98;;;12.10;76.90;;;14.82;50.14;98395.16;5030765;28;20060;-45
2023/02/18 03:38:30;;;;;;;5.10;2.27;;;12.10;77.00;;;14.75;50.51;98395.03;5013921;28;20042;-47
2023/02/18 03:40:58;;;;;;;4.13;2.40;;;12.10;77.20;;;14.82;50.40;98405.88;5008766;28;20046;-45
2023/02/18 03:43:26;;;;;;;6.65;2.38;;;12.10;77.30;;;14.82;50.46;98405.88;5030160;28;20523;-44
2023/02/18 03:45:53;;;;;;;4.13;2.00;;;12.10;77.30;;;14.89;50.21;98414.09;5029877;28;20434;-45
2023/02/18 03:48:21;;;;;;;2.97;2.22;;;12.10;77.50;;;14.79;50.49;98405.38;5013608;28;20060;-47
2023/02/18 03:50:52;;;;;;;2.65;1.70;;;12.10;77.60;;;14.82;50.58;98405.88;5029870;28;20053;-48
2023/02/18 03:53:19;;;;;;;2.53;1.95;;;12.10;77.60;;;14.95;50.08;98410.75;5030790;28;20045;-45
2023/02/18 03:55:47;;;;;;;2.53;2.08;;;12.10;77.20;;;14.79;50.46;98400.84;5031022;28;20049;-44
2023/02/18 03:58:14;;;;;;;3.03;2.05;;;12.10;77.50;;;14.81;50.44;98404.22;5031242;28;20042;-44
2023/02/18 04:00:42;;;;;;;2.50;2.00;;;12.10;77.60;;;14.74;50.56;98403.22;5029934;28;20436;-44
2023/02/18 04:03:10;;;;;;;3.70;2.33;;;12.10;77.40;;;14.80;50.37;98407.06;5030777;28;20041;-45
2023/02/18 04:05:37;;;;;;;3.42;2.38;;;12.10;77.30;;;14.87;50.18;98397.31;5030928;28;20041;-45
2023/02/18 04:08:05;;;;;;;2.88;1.92;;;12.20;77.40;;;14.90;50.11;98403.19;5030950;28;20041;-45
2023/02/18 04:10:32;;;;;;;4.20;2.00;;;12.20;77.00;;;14.94;50.12;98387.59;5030593;28;20057;-45
2023/02/18 04:13:00;;;;;;;2.75;2.00;;;12.20;77.20;;;14.91;50.06;98391.47;5029066;28;20046;-46
2023/02/18 04:15:28;;;;;;;2.75;2.25;;;12.20;76.80;;;14.99;49.74;98371.84;5030526;28;20117;-45
2023/02/18 04:17:55;;;;;;;3.40;2.10;;;12.30;76.40;;;15.00;49.77;98378.03;5022803;28;20052;-47
2023/02/18 04:20:23;;;;;;;2.67;1.95;;;12.30;76.00;;;14.96;49.74;98377.53;5030862;28;20072;-47
2023/02/18 04:22:51;;;;;;;3.30;2.45;;;12.30;75.90;;;14.89;49.76;98382.75;5030713;28;20046;-44
2023/02/18 04:25:18;;;;;;;3.63;2.35;;;12.20;75.80;;;14.59;50.39;98384.31;5030502;28;20049;-47
2023/02/18 04:27:46;;;;;;;2.53;1.92;;;12.10;75.90;;;14.90;49.61;98375.53;5032252;28;20057;-47
2023/02/18 04:30:14;;;;;;;2.60;1.73;;;12.20;75.90;;;15.04;49.26;98382.03;5034983;28;20052;-49
2023/02/18 04:32:44;;;;;;;2.40;2.00;;;12.30;75.90;;;15.11;49.13;98383.03;5034933;28;20045;-46
2023/02/18 04:35:12;;;;;;;3.08;2.20;;;12.30;75.30;;;15.06;48.89;98380.03;5034425;28;20417;-45
2023/02/18 04:37:40;;;;;;;3.05;2.00;;;12.30;74.70;;;15.16;48.76;98378.00;5034330;28;20246;-45
2023/02/18 04:40:08;;;;;;;3.83;2.50;;;12.30;73.80;;;15.05;48.66;98379.19;5035409;28;20050;-47
2023/02/18 04:42:36;;;;;;;3.42;2.17;;;12.30;73.80;;;15.16;48.53;98381.53;5033643;28;20057;-47
2023/02/18 04:45:04;;;;;;;2.60;1.83;;;12.40;73.60;;;15.15;48.27;98387.88;5034248;28;20052;-46
2023/02/18 04:47:31;;;;;;;2.97;2.30;;;12.30;73.70;;;15.13;48.21;98378.34;5034718;28;20049;-44
2023/02/18 04:49:59;;;;;;;3.65;2.55;;;12.30;73.30;;;15.11;48.08;98373.16;5033043;28;20045;-47
2023/02/18 04:52:26;;;;;;;3.70;2.45;;;12.30;73.60;;;14.99;48.25;98377.22;5034559;28;20053;-44
2023/02/18 04:54:54;;;;;;;2.78;2.38;;;12.20;73.00;;;15.00;48.16;98370.00;5034132;28;20045;-46
2023/02/18 04:57:22;;;;;;;2.45;1.90;;;12.20;72.60;;;14.89;48.41;98369.34;5034435;28;20052;-46
2023/02/18 04:59:49;;;;;;;2.35;1.90;;;12.10;73.30;;;14.99;47.97;98373.69;5034286;28;20041;-44
2023/02/18 05:02:17;;;;;;;3.38;2.30;;;12.20;73.10;;;14.99;47.95;98361.13;5034274;28;20049;-44
2023/02/18 05:04:44;;;;;;;3.00;1.92;;;12.20;72.60;;;14.98;48.07;98372.00;5033929;28;20043;-47
2023/02/18 05:07:12;;;;;;;2.22;1.80;;;12.20;73.10;;;14.99;48.09;98373.69;5033100;28;20045;-45
2023/02/18 05:09:40;;;;;;;3.35;1.90;;;12.20;73.00;;;15.04;48.01;98376.69;5033223;28;20045;-44
2023/02/18 05:12:07;;;;;;;3.13;1.95;;;12.20;72.40;;;15.09;47.97;98371.66;5034395;28;20057;-44
2023/02/18 05:14:35;;;;;;;3.10;2.00;;;12.20;72.80;;;15.04;47.67;98365.97;5033774;28;20493;-45
2023/02/18 05:17:02;;;;;;;3.78;2.08;;;12.20;71.80;;;14.81;48.04;98377.44;5033892;28;20072;-46
2023/02/18 05:19:30;;;;;;;3.10;2.13;;;12.20;72.00;;;14.86;48.11;98361.66;5034078;28;20048;-49
2023/02/18 05:21:58;;;;;;;2.90;2.15;;;12.20;72.10;;;14.79;48.12;98367.84;5033843;28;20046;-45
2023/02/18 05:24:25;;;;;;;2.53;1.80;;;12.10;72.10;;;14.79;48.21;98359.81;5033514;28;20034;-44
2023/02/18 05:26:53;;;;;;;3.47;2.47;;;12.10;72.60;;;14.85;48.22;98367.16;5033841;28;20060;-46
2023/02/18 05:29:20;;;;;;;2.97;2.25;;;12.10;72.30;;;14.72;48.33;98348.94;5033940;28;20053;-43
2023/02/18 05:31:48;;;;;;;3.15;1.83;;;12.10;72.80;;;14.85;48.04;98360.00;5032342;28;20053;-46
2023/02/18 05:34:16;;;;;;;2.55;1.90;;;12.20;72.60;;;14.86;48.28;98374.22;5033436;28;20539;-45
2023/02/18 05:36:43;;;;;;;2.28;2.03;;;12.10;72.50;;;14.88;48.18;98351.59;5033492;28;20041;-48
2023/02/18 05:39:11;;;;;;;2.63;1.73;;;12.10;72.10;;;14.98;47.96;98354.06;5033143;28;20045;-46
2023/02/18 05:41:38;;;;;;;3.75;2.33;;;12.20;72.70;;;15.07;47.66;98363.78;5032415;28;20436;-44
2023/02/18 05:46:52;;;;;;;3.10;1.75;;;12.20;72.10;;;15.06;47.65;98375.53;5033497;28;20520;-45
2023/02/18 05:49:20;;;;;;;1.98;1.60;;;12.20;72.10;;;14.82;48.29;98359.50;5033615;28;20424;-44
2023/02/18 05:51:47;;;;;;;5.30;2.58;;;12.20;73.50;;;14.89;47.95;98360.50;5033381;28;20049;-43
2023/02/18 05:54:15;;;;;;;2.85;2.10;;;12.10;72.40;;;14.87;47.91;98359.78;5033094;28;20539;-44
2023/02/18 05:56:42;;;;;;;4.15;2.05;;;12.20;72.00;;;14.96;47.83;98356.09;5033077;28;20049;-45
2023/02/18 05:59:10;;;;;;;2.67;2.20;;;12.20;71.90;;;14.95;47.59;98366.00;5032320;28;20044;-44
2023/02/18 06:01:38;;;;;;;4.25;2.60;;;12.30;71.60;;;15.02;47.54;98363.44;5033455;28;20045;-43
2023/02/18 06:04:05;;;;;;;2.78;2.10;;;12.30;71.80;;;14.79;48.13;98360.66;5032839;28;20041;-46
2023/02/18 06:06:34;;;;;;;3.10;2.45;;;12.30;71.70;;;14.85;48.22;98360.00;5031719;28;20056;-46
2023/02/18 06:09:03;;;;;;;4.35;2.13;;;12.30;72.00;;;14.87;47.87;98362.47;5033039;28;20049;-43
2023/02/18 06:11:31;;;;;;;2.60;1.92;;;12.30;72.10;;;15.01;47.96;98363.63;5031826;28;20049;-42
2023/02/18 06:13:59;;;;;;;5.95;3.38;;;12.30;72.20;;;15.10;47.79;98359.91;5030627;28;20045;-47
2023/02/18 06:16:27;;;;;;;3.33;2.60;;;12.40;72.90;;;15.15;47.54;98350.31;5032813;28;20529;-43
2023/02/18 06:18:55;;;;;;;2.90;2.05;;;12.40;71.90;;;15.20;47.65;98349.81;5032790;28;20046;-48
2023/02/18 06:21:23;;;;;;;3.30;2.40;;;12.40;71.90;;;15.21;47.52;98346.13;5031084;28;20058;-43
2023/02/18 06:23:51;;;;;;;2.97;2.22;;;12.40;71.30;;;15.19;47.37;98353.50;5032349;28;20045;-44
2023/02/18 06:26:18;;;;;;;2.95;2.15;;;12.40;71.50;;;15.26;47.19;98354.50;5032825;28;20056;-45
2023/02/18 06:28:46;;;;;;;2.83;1.90;;;12.40;71.40;;;15.27;47.13;98345.41;5032635;28;20437;-47
2023/02/18 06:31:14;;;;;;;2.38;1.75;;;12.40;70.80;;;15.32;46.94;98356.47;5032586;28;20049;-48
2023/02/18 06:33:41;;;;;;;2.15;1.70;;;12.50;70.70;;;15.30;46.83;98350.44;5032247;28;20398;-45
2023/02/18 06:36:11;;;;;;;3.85;2.47;;;12.50;70.50;;;15.36;46.79;98352.44;5032572;28;20052;-43
2023/02/18 06:38:42;;;;;;;2.92;1.70;;;12.50;70.50;;;15.40;46.85;98360.16;5031330;28;20052;-46
2023/02/18 06:41:11;;;;;;;3.70;2.13;;;12.50;70.00;;;15.42;46.66;98364.31;5015343;28;20088;-48
2023/02/18 06:43:39;;;;;;;3.03;2.35;;;12.60;70.20;;;15.42;46.29;98383.09;5031790;28;20038;-48
2023/02/18 06:46:07;;;;;;;3.75;1.95;;;12.60;69.80;;;15.27;46.98;98374.09;5032261;28;20046;-46
2023/02/18 06:48:35;;;;;;;2.60;1.90;;;12.50;70.10;;;15.37;46.43;98372.03;5032275;28;20060;-45
2023/02/18 06:51:03;;;;;;;2.67;2.00;;;12.50;69.90;;;15.35;46.63;98372.25;5031095;28;20677;-44
2023/02/18 06:53:30;;;;;;;2.83;1.92;;;12.60;70.00;;;15.41;46.77;98354.59;5030226;28;20080;-45
2023/02/18 06:55:58;;;;;;;3.97;2.70;;;12.60;70.00;;;15.32;46.87;98359.16;5031967;28;20061;-42
2023/02/18 06:58:26;;;;;;;2.53;1.90;;;12.60;69.60;;;15.39;46.88;98353.91;5031926;28;20049;-45
2023/02/18 07:00:54;;;;;;;2.70;1.92;;;12.60;70.40;;;15.49;46.70;98356.38;5032058;28;20061;-46
2023/02/18 07:03:21;;;;;;;2.50;1.95;;;12.60;69.90;;;15.47;46.52;98353.03;5031850;28;20063;-43
2023/02/18 07:05:49;;;;;;;3.85;2.03;;;12.60;70.10;;;15.52;46.44;98356.88;5031638;28;20080;-47
2023/02/18 07:08:17;;;;;;;3.08;2.03;;;12.60;70.00;;;15.54;46.32;98351.34;5032043;28;20045;-43
2023/02/18 07:10:45;;;;;;;2.80;2.10;;;12.70;70.20;;;15.57;46.07;98353.69;5032245;28;20393;-46
2023/02/18 07:13:13;;;;;;;2.85;2.08;;;12.70;69.30;;;15.56;46.33;98358.19;5029601;28;20055;-44
2023/02/18 07:15:41;;;;;;;2.85;2.00;;;12.70;69.90;;;15.62;46.25;98350.47;5031309;28;20053;-43
2023/02/18 07:18:08;;;;;;;3.00;1.88;;;12.70;69.80;;;15.64;46.03;98367.22;5031501;28;20489;-47
2023/02/18 07:20:36;;;;;;;3.28;2.50;;;12.70;69.50;;;15.60;46.13;98341.75;5031526;28;20390;-44
2023/02/18 07:23:03;;;;;;;3.42;2.30;;;12.70;69.30;;;15.56;46.03;98355.50;5031397;28;20041;-45
2023/02/18 07:25:31;;;;;;;2.85;1.80;;;12.70;69.00;;;15.58;46.10;98341.09;5031347;28;20050;-43
2023/02/18 07:27:58;;;;;;;2.90;2.38;;;12.70;69.20;;;15.49;46.18;98338.47;5030554;28;20049;-45
2023/02/18 07:30:26;;;;;;;3.40;2.25;;;12.70;69.10;;;15.58;46.12;98330.34;5031472;28;20048;-44
2023/02/18 07:32:53;;;;;;;3.28;2.17;;;12.70;69.10;;;15.60;45.93;98333.69;5031435;28;20052;-46
2023/02/18 07:35:21;;;;;;;3.38;2.28;;;12.70;68.60;;;15.61;45.83;98332.72;5031182;28;20053;-43
2023/02/18 07:37:49;;;;;;;3.00;2.17;;;12.70;69.00;;;15.63;45.88;98328.81;5031229;28;20041;-46
2023/02/18 07:40:20;;;;;;;3.17;2.30;;;12.80;68.90;;;15.60;45.69;98337.22;5031397;28;20038;-44
2023/02/18 07:42:48;;;;;;;2.80;1.98;;;12.80;68.40;;;15.64;45.90;98338.53;5031430;28;20420;-43
2023/02/18 07:45:16;;;;;;;2.70;1.98;;;12.80;68.90;;;15.70;45.84;98324.44;5029186;28;20181;-45
2023/02/18 07:47:44;;;;;;;3.10;2.30;;;12.90;68.50;;;15.69;45.59;98321.91;5031612;28;20053;-46
2023/02/18 07:50:12;;;;;;;3.17;2.22;;;12.90;68.20;;;15.74;45.73;98325.78;5031212;28;20054;-45
2023/02/18 07:52:39;;;;;;;3.28;2.08;;;12.90;68.40;;;15.79;45.64;98327.91;5031478;28;20416;-47
2023/02/18 07:55:07;;;;;;;2.60;1.98;;;13.00;68.30;;;15.84;45.56;98330.06;5030455;28;20041;-45
2023/02/18 07:57:56;;;;;;;3.17;1.80;;;13.00;67.90;;;15.86;45.55;98323.50;5029878;28;20390;-42
2023/02/18 08:00:23;;;;;;;2.58;2.22;;;13.00;68.60;;;15.79;45.73;98327.09;5025004;28;20429;-43
2023/02/18 08:02:50;;;;;;;2.70;2.00;;;12.90;68.00;;;15.76;45.79;98333.66;5030971;28;20037;-46
2023/02/18 08:05:18;;;;;;;2.95;2.22;;;12.90;68.60;;;15.71;46.18;98339.50;5030447;28;20061;-44
2023/02/18 08:07:46;;;;;;;3.42;2.08;;;12.90;68.70;;;15.72;45.74;98326.91;5015965;28;20050;-45
2023/02/18 08:10:13;;;;;;;3.63;2.20;;;12.90;68.60;;;15.70;45.42;98348.59;5029661;28;20521;-43
2023/02/18 08:12:40;;;;;;;2.38;1.98;;;12.90;68.30;;;15.67;45.72;98332.00;5030891;28;20053;-43
2023/02/18 08:15:08;;;;;;;2.58;2.05;;;12.90;68.00;;;15.66;45.76;98346.41;5030434;28;20045;-43
2023/02/18 08:17:36;;;;;;;3.28;1.90;;;12.90;68.30;;;15.73;45.94;98339.38;5030818;28;20049;-45
2023/02/18 08:20:05;;;;;;;6.00;2.70;;;13.00;68.00;;;15.59;46.05;98329.38;5029637;28;20509;-45
2023/02/18 08:22:32;;;;;;;3.38;2.00;;;13.00;68.00;;;15.61;45.71;98324.66;5030989;28;20469;-43
2023/02/18 08:25:00;;;;;;;3.83;2.30;;;12.90;67.20;;;15.68;45.69;98321.09;5030288;28;20045;-46
2023/02/18 08:27:27;;;;;;;2.83;2.08;;;12.90;67.80;;;15.72;45.68;98319.72;5030969;28;20428;-43
2023/02/18 08:29:55;;;;;;;2.35;1.95;;;13.00;67.60;;;15.74;45.24;98320.41;5030590;28;20424;-46
2023/02/18 08:32:27;;;;;;;2.78;1.95;;;13.00;67.10;;;15.71;45.49;98318.03;5030740;28;20045;-43
2023/02/18 08:34:55;;;;;;;3.17;2.00;;;13.00;67.50;;;15.72;45.41;98316.16;5030293;28;20045;-45
2023/02/18 08:37:23;;;;;;;5.47;3.05;;;13.00;67.50;;;15.85;45.21;98321.81;5029301;28;20049;-43
2023/02/18 08:39:51;;;;;;;2.97;2.17;;;13.00;67.50;;;15.82;45.39;98314.16;5030139;28;20060;-44
2023/02/18 08:42:18;;;;;;;4.10;2.08;;;13.10;67.30;;;15.88;45.23;98308.06;5030578;28;20145;-46
2023/02/18 08:44:46;;;;;;;2.55;1.85;;;13.10;67.10;;;15.90;45.02;98308.72;5028644;28;20498;-43
2023/02/18 08:47:13;;;;;;;2.53;1.67;;;13.10;67.00;;;15.99;44.86;98311.31;5030650;28;20045;-43
2023/02/18 08:50:01;;;;;;;3.72;1.90;;;13.20;66.20;;;15.98;44.96;98313.19;5030477;28;20060;-46
2023/02/18 08:52:28;;;;;;;2.05;1.70;;;13.20;66.80;;;16.03;45.04;98310.81;5030458;28;20045;-47
2023/02/18 08:54:56;;;;;;;2.67;2.00;;;13.30;67.00;;;16.08;44.84;98310.25;5030087;28;20141;-45
2023/02/18 08:57:23;;;;;;;3.45;2.20;;;13.40;66.70;;;16.16;44.94;98317.41;5030676;28;20045;-44
2023/02/18 08:59:51;;;;;;;3.83;1.70;;;13.40;66.80;;;16.05;45.13;98307.91;5030441;28;20543;-45
2023/02/18 09:02:19;;;;;;;2.72;1.67;;;13.30;66.70;;;16.20;45.10;98314.19;5030595;28;20045;-43
2023/02/18 09:04:46;;;;;;;2.33;1.55;;;13.50;66.90;;;16.25;44.87;98319.84;5029988;28;20409;-44
2023/02/18 09:07:14;;;;;;;3.15;1.88;;;13.40;66.20;;;16.23;45.07;98310.31;5030617;28;20049;-44
2023/02/18 09:09:41;;;;;;;3.25;1.95;;;13.40;66.90;;;16.29;44.90;98309.59;5030180;28;20049;-45
2023/02/18 09:12:09;;;;;;;1.88;1.58;;;13.50;66.80;;;16.32;44.63;98306.50;5030562;28;20424;-45
2023/02/18 09:14:36;;;;;;;3.13;1.83;;;13.50;66.80;;;16.27;44.86;98301.69;5033029;28;20428;-45
2023/02/18 09:17:04;;;;;;;18.73;2.40;;;13.50;66.40;;;16.32;44.77;98301.13;5032226;28;20052;-43
2023/02/18 09:19:31;;;;;;;2.80;1.75;;;13.40;66.50;;;16.34;44.76;98308.03;5033835;28;20041;-44
2023/02/18 09:21:59;;;;;;;1.45;1.17;;;13.50;66.90;;;16.40;44.92;98286.78;5034072;28;20049;-43
2023/02/18 09:24:27;;;;;;;1.88;1.40;;;13.50;66.80;;;16.41;44.77;98285.78;5032586;28;20410;-47
2023/02/18 09:26:54;;;;;;;2.53;1.48;;;13.50;66.90;;;16.41;44.70;98297.38;5034049;28;20049;-43
2023/02/18 09:29:22;;;;;;;1.80;1.38;;;13.50;66.50;;;16.34;44.71;98289.22;5019849;28;20046;-44
2023/02/18 09:31:49;;;;;;;2.25;1.58;;;13.50;66.60;;;16.30;44.45;98301.34;5023946;28;20052;-45
2023/02/18 09:34:17;;;;;;;1.83;1.38;;;13.50;66.20;;;16.30;44.77;98279.84;5028409;28;20049;-42
2023/02/18 09:36:45;;;;;;;2.33;1.60;;;13.50;66.60;;;16.38;44.78;98291.53;5027554;28;20052;-44
2023/02/18 09:39:12;;;;;;;2.78;1.65;;;13.50;66.70;;;16.39;44.40;98291.34;5022773;28;20056;-44
2023/02/18 09:41:50;;;;;;;2.67;1.85;;;13.50;65.70;;;16.42;44.38;98293.69;5028513;28;21007;-45
2023/02/18 09:44:20;;;;;;;2.88;1.83;;;13.50;66.20;;;16.39;44.65;98288.66;5027858;28;20052;-42
2023/02/18 09:47:04;;;;;;;2.30;1.40;;;13.50;66.20;;;16.48;44.48;98286.75;5028261;28;20080;-44
2023/02/18 09:49:37;;;;;;;1.70;1.35;;;13.60;66.00;;;16.56;44.31;98292.03;5026506;28;20053;-44
2023/02/18 09:52:32;;;;;;;1.87;1.37;;;13.70;66.00;;;16.27;44.43;98292.81;5027075;28;20041;-44
2023/02/18 09:55:20;;;;;;;2.55;1.80;;;13.60;64.80;;;16.49;44.59;98304.53;5026692;28;20280;-43
2023/02/18 09:57:59;;;;;;;2.97;1.65;;;13.60;65.40;;;16.23;44.60;98299.56;5026671;28;20057;-45
2023/02/18 10:00:45;;;;;;;2.95;1.85;;;13.50;65.40;;;16.27;44.53;98290.13;5024306;28;20393;-44
2023/02/18 10:03:20;;;;;;;1.80;1.30;;;13.50;65.20;;;16.20;44.83;98292.69;5026618;28;20041;-43
2023/02/18 10:06:09;;;;;;;2.90;2.13;;;13.50;65.80;;;16.43;44.57;98303.41;5027976;28;20499;-42
2023/02/18 10:08:41;;;;;;;2.95;1.63;;;13.60;65.20;;;16.26;44.24;98304.56;5028086;28;20045;-44
2023/02/18 10:11:35;;;;;;;2.65;1.38;;;13.60;64.60;;;16.04;44.41;98295.53;5026095;28;20045;-43
2023/02/18 10:14:09;;;;;;;1.88;1.42;;;13.50;64.50;;;16.20;44.09;98291.84;5024259;28;20072;-46
2023/02/18 10:16:37;;;;;;;2.40;1.75;;;13.50;64.40;;;16.10;44.30;98290.25;5026508;28;20056;-44
2023/02/18 10:19:36;;;;;;;2.90;1.90;;;13.50;64.40;;;15.90;44.63;98289.09;5028504;28;20049;-47
2023/02/18 10:22:07;;;;;;;2.10;1.73;;;13.40;64.10;;;15.73;45.19;98281.13;5024950;28;20041;-43
2023/02/18 10:24:51;;;;;;;2.17;1.33;;;13.40;65.20;;;16.02;45.01;98287.63;5023771;28;20489;-43
2023/02/18 10:27:36;;;;;;;3.72;1.70;;;13.40;65.50;;;15.94;44.72;98309.19;5025443;28;20053;-44
2023/02/18 10:30:33;;;;;;;3.05;1.50;;;13.50;64.80;;;16.10;44.62;98281.38;5024628;28;20050;-47
2023/02/18 10:33:32;;;;;;;2.40;1.63;;;13.50;64.90;;;15.57;45.29;98278.53;5025672;28;20049;-42
2023/02/18 10:36:23;;;;;;;2.80;1.80;;;13.40;65.00;;;15.99;45.08;98287.97;5026323;28;20057;-42
2023/02/18 10:39:37;;;;;;;1.70;1.42;;;13.50;65.10;;;15.86;45.33;98290.47;5029512;28;20040;-46
2023/02/18 10:42:37;;;;;;;3.47;1.60;;;13.50;65.10;;;15.98;45.21;98289.00;5030969;28;20052;-42
2023/02/18 10:45:39;;;;;;;1.60;1.13;;;13.50;65.40;;;15.81;45.84;98296.34;5030942;28;20519;-45